createdAt,value
2023-02-28T00:00:52.937Z,75.09
2023-02-28T00:01:53.079Z,73.43
2023-02-28T00:02:53.042Z,72.61
2023-02-28T00:03:53.067Z,74.15
2023-02-28T00:04:53.148Z,72.96
2023-02-28T00:05:53.188Z,75.83
2023-02-28T00:06:52.243Z,71.80
2023-02-28T00:07:52.297Z,76.15
2023-02-28T00:08:53.357Z,74.47
2023-02-28T00:09:52.416Z,72.14
2023-02-28T00:10:53.516Z,74.27
2023-02-28T00:11:53.539Z,73.30
2023-02-28T00:12:52.637Z,75.34
2023-02-28T00:13:52.645Z,75.89
2023-02-28T00:14:53.699Z,75.19
2023-02-28T00:15:53.776Z,75.19
2023-02-28T00:16:53.882Z,72.86
2023-02-28T00:17:53.900Z,70.20
2023-02-28T00:18:53.929Z,74.48
2023-02-28T00:19:53.992Z,75.60
2023-02-28T00:20:53.040Z,71.96
2023-02-28T00:21:54.102Z,74.55
2023-02-28T00:22:54.162Z,74.91
2023-02-28T00:23:54.215Z,74.31
2023-02-28T00:24:54.279Z,72.27
2023-02-28T00:25:54.323Z,72.79
2023-02-28T00:26:54.405Z,73.37
2023-02-28T00:27:54.432Z,74.02
2023-02-28T00:28:53.501Z,74.01
2023-02-28T00:29:54.548Z,71.43
2023-02-28T00:30:54.664Z,73.17
2023-02-28T00:31:54.712Z,70.71
2023-02-28T00:32:54.723Z,73.30
2023-02-28T00:33:53.819Z,77.03
2023-02-28T00:34:53.821Z,76.65
2023-02-28T00:35:54.935Z,75.93
2023-02-28T00:36:53.945Z,74.09
2023-02-28T00:37:55.037Z,73.36
2023-02-28T00:38:55.059Z,73.40
2023-02-28T00:39:55.117Z,70.70
2023-02-28T00:40:54.165Z,69.55
2023-02-28T00:41:55.220Z,69.96
2023-02-28T00:42:55.296Z,72.00
2023-02-28T00:43:54.336Z,74.84
2023-02-28T00:44:55.381Z,72.41
2023-02-28T00:45:54.455Z,70.92
2023-02-28T00:46:55.480Z,73.23
2023-02-28T00:47:54.566Z,72.99
2023-02-28T00:48:55.604Z,71.34
2023-02-28T00:49:55.622Z,71.76
2023-02-28T00:50:54.691Z,71.52
2023-02-28T00:51:55.732Z,70.75
2023-02-28T00:52:55.783Z,73.00
2023-02-28T00:53:55.829Z,69.57
2023-02-28T00:54:55.879Z,76.14
2023-02-28T00:55:55.930Z,72.71
2023-02-28T00:56:54.981Z,74.36
2023-02-28T00:57:56.041Z,74.42
2023-02-28T00:58:56.079Z,72.13
2023-02-28T00:59:56.122Z,73.29
2023-02-28T01:00:55.175Z,73.30
2023-02-28T01:01:56.281Z,73.06
2023-02-28T01:02:56.286Z,75.33
2023-02-28T01:03:56.348Z,74.74
2023-02-28T01:04:56.415Z,73.17
2023-02-28T01:05:56.452Z,73.91
2023-02-28T01:06:56.500Z,76.25
2023-02-28T01:07:56.547Z,74.22
2023-02-28T01:08:56.614Z,76.04
2023-02-28T01:09:55.670Z,73.70
2023-02-28T01:10:56.729Z,75.38
2023-02-28T01:11:56.786Z,76.19
2023-02-28T01:12:56.815Z,76.63
2023-02-28T01:13:56.893Z,75.36
2023-02-28T01:14:56.917Z,76.28
2023-02-28T01:15:57.072Z,75.27
2023-02-28T01:16:57.026Z,74.43
2023-02-28T01:17:57.064Z,73.85
2023-02-28T01:18:57.141Z,73.94
2023-02-28T01:19:57.160Z,74.54
2023-02-28T01:20:57.229Z,74.31
2023-02-28T01:21:57.265Z,76.11
2023-02-28T01:22:57.310Z,77.17
2023-02-28T01:23:57.362Z,72.61
2023-02-28T01:24:57.419Z,74.17
2023-02-28T01:25:57.471Z,75.90
2023-02-28T01:26:57.506Z,72.03
2023-02-28T01:27:57.557Z,74.18
2023-02-28T01:28:57.597Z,74.76
2023-02-28T01:29:57.656Z,73.60
2023-02-28T01:30:57.709Z,72.52
2023-02-28T01:31:57.831Z,74.31
2023-02-28T01:32:57.791Z,76.88
2023-02-28T01:33:57.851Z,76.15
2023-02-28T01:34:57.903Z,73.27
2023-02-28T01:35:56.987Z,77.50
2023-02-28T01:36:58.015Z,77.14
2023-02-28T01:38:04.664Z,74.17
2023-02-28T01:38:58.015Z,74.39
2023-02-28T01:39:58.006Z,74.90
2023-02-28T01:40:57.999Z,75.78
2023-02-28T01:41:58.001Z,76.63
2023-02-28T01:42:57.993Z,80.45
2023-02-28T01:43:56.985Z,78.99
2023-02-28T01:44:57.966Z,76.20
2023-02-28T01:45:57.978Z,79.53
2023-02-28T01:46:56.947Z,77.37
2023-02-28T01:47:56.965Z,76.69
2023-02-28T01:48:57.946Z,77.06
2023-02-28T01:49:57.940Z,80.02
2023-02-28T01:50:57.922Z,76.84
2023-02-28T01:51:57.924Z,78.15
2023-02-28T01:52:56.935Z,78.26
2023-02-28T01:53:57.909Z,78.85
2023-02-28T01:54:57.898Z,76.84
2023-02-28T01:55:56.889Z,79.02
2023-02-28T01:56:56.895Z,75.90
2023-02-28T01:57:57.884Z,77.94
2023-02-28T01:58:56.877Z,77.83
2023-02-28T01:59:57.858Z,78.74
2023-02-28T02:00:57.862Z,77.74
2023-02-28T02:01:57.912Z,78.71
2023-02-28T02:02:57.909Z,78.22
2023-02-28T02:03:57.840Z,78.02
2023-02-28T02:04:57.843Z,79.14
2023-02-28T02:05:57.822Z,77.72
2023-02-28T02:06:57.834Z,81.16
2023-02-28T02:07:57.849Z,79.50
2023-02-28T02:08:56.842Z,75.70
2023-02-28T02:09:56.803Z,80.85
2023-02-28T02:10:57.789Z,77.33
2023-02-28T02:11:57.789Z,76.58
2023-02-28T02:12:57.788Z,77.47
2023-02-28T02:13:57.775Z,78.70
2023-02-28T02:14:57.767Z,77.80
2023-02-28T02:15:56.845Z,78.87
2023-02-28T02:16:57.748Z,79.77
2023-02-28T02:17:57.796Z,75.64
2023-02-28T02:18:57.730Z,81.51
2023-02-28T02:19:56.752Z,78.94
2023-02-28T02:20:57.770Z,81.18
2023-02-28T02:21:57.797Z,78.83
2023-02-28T02:22:57.854Z,78.12
2023-02-28T02:23:57.881Z,78.19
2023-02-28T02:24:57.928Z,80.29
2023-02-28T02:25:57.927Z,78.20
2023-02-28T02:26:57.965Z,78.80
2023-02-28T02:27:58.018Z,78.72
2023-02-28T02:28:58.051Z,79.61
2023-02-28T02:29:58.063Z,77.54
2023-02-28T02:30:58.117Z,79.26
2023-02-28T02:31:57.206Z,79.36
2023-02-28T02:32:58.181Z,78.78
2023-02-28T02:33:58.201Z,78.13
2023-02-28T02:34:58.302Z,77.30
2023-02-28T02:35:58.336Z,80.24
2023-02-28T02:36:58.301Z,79.89
2023-02-28T02:37:58.383Z,80.19
2023-02-28T02:38:57.358Z,80.29
2023-02-28T02:39:58.401Z,77.61
2023-02-28T02:40:58.487Z,78.77
2023-02-28T02:41:57.460Z,80.89
2023-02-28T02:42:57.503Z,78.19
2023-02-28T02:43:58.536Z,79.18
2023-02-28T02:44:57.561Z,79.20
2023-02-28T02:45:58.668Z,79.97
2023-02-28T02:46:57.644Z,76.84
2023-02-28T02:47:58.668Z,76.50
2023-02-28T02:48:58.706Z,78.54
2023-02-28T02:49:57.735Z,80.31
2023-02-28T02:50:57.760Z,78.78
2023-02-28T02:51:58.797Z,80.80
2023-02-28T02:52:58.835Z,80.89
2023-02-28T02:53:58.858Z,78.20
2023-02-28T02:54:58.880Z,77.28
2023-02-28T02:55:58.902Z,75.34
2023-02-28T02:56:58.959Z,77.08
2023-02-28T02:57:57.972Z,76.46
2023-02-28T02:58:59.001Z,75.63
2023-02-28T02:59:59.022Z,77.94
2023-02-28T03:00:59.091Z,78.76
2023-02-28T03:01:59.095Z,74.20
2023-02-28T03:02:59.125Z,74.83
2023-02-28T03:03:58.194Z,77.65
2023-02-28T03:04:59.173Z,77.94
2023-02-28T03:05:59.215Z,79.03
2023-02-28T03:06:59.234Z,77.03
2023-02-28T03:07:59.265Z,74.37
2023-02-28T03:08:58.288Z,73.39
2023-02-28T03:09:58.331Z,76.86
2023-02-28T03:10:59.344Z,78.84
2023-02-28T03:11:59.381Z,76.42
2023-02-28T03:12:59.443Z,77.85
2023-02-28T03:13:59.426Z,76.63
2023-02-28T03:14:59.446Z,78.00
2023-02-28T03:15:59.534Z,74.82
2023-02-28T03:16:58.522Z,74.94
2023-02-28T03:17:59.548Z,77.85
2023-02-28T03:18:58.571Z,75.42
2023-02-28T03:19:59.580Z,75.21
2023-02-28T03:20:59.615Z,76.18
2023-02-28T03:21:58.653Z,77.84
2023-02-28T03:22:58.670Z,76.77
2023-02-28T03:23:58.699Z,74.05
2023-02-28T03:24:59.719Z,73.93
2023-02-28T03:25:59.735Z,75.66
2023-02-28T03:26:59.768Z,74.93
2023-02-28T03:27:59.831Z,74.22
2023-02-28T03:28:59.858Z,75.75
2023-02-28T03:29:59.845Z,75.47
2023-02-28T03:30:59.882Z,74.97
2023-02-28T03:31:58.984Z,78.41
2023-02-28T03:32:59.937Z,74.57
2023-02-28T03:33:59.998Z,74.81
2023-02-28T03:34:59.994Z,71.18
2023-02-28T03:35:59.055Z,75.06
2023-02-28T03:37:00.105Z,72.65
2023-02-28T03:38:00.095Z,72.54
2023-02-28T03:39:00.152Z,74.81
2023-02-28T03:40:00.153Z,74.05
2023-02-28T03:40:59.160Z,73.63
2023-02-28T03:42:00.204Z,73.59
2023-02-28T03:43:00.249Z,75.68
2023-02-28T03:44:00.272Z,73.29
2023-02-28T03:44:59.301Z,74.70
2023-02-28T03:46:00.389Z,73.75
2023-02-28T03:47:00.345Z,73.71
2023-02-28T03:48:00.380Z,75.34
2023-02-28T03:49:00.418Z,76.58
2023-02-28T03:50:00.440Z,74.29
2023-02-28T03:51:00.461Z,72.05
2023-02-28T03:52:00.510Z,74.19
2023-02-28T03:53:00.535Z,74.65
2023-02-28T03:54:00.577Z,73.98
2023-02-28T03:55:00.571Z,73.15
2023-02-28T03:55:59.597Z,74.46
2023-02-28T03:57:00.638Z,73.86
2023-02-28T03:57:59.683Z,73.76
2023-02-28T03:59:00.704Z,73.20
2023-02-28T04:00:00.735Z,74.94
2023-02-28T04:01:00.784Z,72.82
2023-02-28T04:02:00.851Z,74.21
2023-02-28T04:02:59.805Z,71.60
2023-02-28T04:04:00.850Z,70.89
2023-02-28T04:05:00.881Z,71.75
2023-02-28T04:05:59.897Z,72.16
2023-02-28T04:07:00.942Z,71.04
2023-02-28T04:08:00.949Z,70.40
2023-02-28T04:09:01.025Z,71.77
2023-02-28T04:10:01.009Z,72.40
2023-02-28T04:11:00.052Z,71.06
2023-02-28T04:12:00.079Z,71.74
2023-02-28T04:13:01.099Z,68.75
2023-02-28T04:14:01.168Z,70.03
2023-02-28T04:15:00.190Z,72.50
2023-02-28T04:16:01.270Z,70.12
2023-02-28T04:17:01.265Z,72.79
2023-02-28T04:18:00.257Z,71.17
2023-02-28T04:19:01.425Z,71.48
2023-02-28T04:20:01.326Z,70.32
2023-02-28T04:21:01.345Z,67.35
2023-02-28T04:22:01.415Z,70.18
2023-02-28T04:23:00.413Z,68.28
2023-02-28T04:24:01.482Z,71.25
2023-02-28T04:25:01.484Z,70.91
2023-02-28T04:26:01.498Z,70.32
2023-02-28T04:27:01.529Z,68.43
2023-02-28T04:28:01.564Z,68.31
2023-02-28T04:29:01.613Z,66.06
2023-02-28T04:30:01.669Z,70.39
2023-02-28T04:31:01.670Z,74.27
2023-02-28T04:32:01.072Z,78.08
2023-02-28T04:33:01.751Z,71.06
2023-02-28T04:34:01.783Z,69.25
2023-02-28T04:35:01.796Z,68.50
2023-02-28T04:36:01.847Z,68.51
2023-02-28T04:37:12.445Z,68.03
2023-02-28T04:38:01.850Z,68.21
2023-02-28T04:39:01.856Z,68.25
2023-02-28T04:40:01.842Z,69.05
2023-02-28T04:41:01.823Z,66.60
2023-02-28T04:42:00.811Z,69.22
2023-02-28T04:43:01.804Z,64.08
2023-02-28T04:44:01.809Z,67.98
2023-02-28T04:45:01.802Z,68.69
2023-02-28T04:46:01.882Z,63.74
2023-02-28T04:47:01.786Z,64.65
2023-02-28T04:48:00.770Z,64.17
2023-02-28T04:49:01.797Z,64.93
2023-02-28T04:50:01.784Z,66.20
2023-02-28T04:51:01.752Z,64.79
2023-02-28T04:52:01.736Z,64.23
2023-02-28T04:53:01.734Z,65.96
2023-02-28T04:54:01.752Z,64.23
2023-02-28T04:55:01.736Z,63.41
2023-02-28T04:56:01.737Z,64.49
2023-02-28T04:57:01.763Z,61.26
2023-02-28T04:58:01.800Z,65.60
2023-02-28T04:59:03.531Z,61.42
2023-02-28T05:00:01.006Z,62.41
2023-02-28T05:01:02.053Z,61.30
2023-02-28T05:02:02.106Z,61.60
2023-02-28T05:03:02.134Z,59.72
2023-02-28T05:04:02.179Z,60.62
2023-02-28T05:05:02.308Z,62.69
2023-02-28T05:06:02.234Z,58.90
2023-02-28T05:07:02.272Z,60.17
2023-02-28T05:08:01.320Z,59.02
2023-02-28T05:09:02.360Z,59.82
2023-02-28T05:10:01.401Z,57.08
2023-02-28T05:11:01.425Z,57.93
2023-02-28T05:12:02.479Z,57.11
2023-02-28T05:13:02.509Z,57.27
2023-02-28T05:14:02.548Z,55.79
2023-02-28T05:15:02.584Z,56.23
2023-02-28T05:16:01.669Z,57.47
2023-02-28T05:17:02.645Z,57.81
2023-02-28T05:18:02.182Z,57.65
2023-02-28T05:19:02.779Z,56.92
2023-02-28T05:20:14.753Z,53.74
2023-02-28T05:21:02.795Z,53.98
2023-02-28T05:22:02.750Z,54.41
2023-02-28T05:23:02.774Z,54.49
2023-02-28T05:24:02.790Z,54.92
2023-02-28T05:25:02.722Z,54.50
2023-02-28T05:26:02.723Z,56.26
2023-02-28T05:27:02.715Z,55.08
2023-02-28T05:28:02.696Z,54.52
2023-02-28T05:29:02.737Z,53.63
2023-02-28T05:30:02.714Z,55.58
2023-02-28T05:31:01.685Z,52.55
2023-02-28T05:32:02.835Z,54.92
2023-02-28T05:33:02.665Z,51.53
2023-02-28T05:34:02.667Z,51.54
2023-02-28T05:35:02.665Z,50.38
2023-02-28T05:36:02.902Z,48.82
2023-02-28T05:37:01.749Z,51.42
2023-02-28T05:38:02.779Z,53.46
2023-02-28T05:39:02.839Z,51.30
2023-02-28T05:40:02.859Z,52.79
2023-02-28T05:41:03.111Z,50.23
2023-02-28T05:42:02.982Z,50.50
2023-02-28T05:43:03.007Z,50.29
2023-02-28T05:44:02.064Z,50.44
2023-02-28T05:45:03.106Z,49.88
2023-02-28T05:46:02.223Z,49.68
2023-02-28T05:47:03.222Z,50.46
2023-02-28T05:48:03.240Z,49.22
2023-02-28T05:49:03.482Z,49.13
2023-02-28T05:50:02.322Z,51.38
2023-02-28T05:51:02.353Z,46.85
2023-02-28T05:52:03.409Z,47.41
2023-02-28T05:53:03.482Z,51.00
2023-02-28T05:54:03.503Z,55.16
2023-02-28T05:55:03.559Z,55.70
2023-02-28T05:56:03.615Z,55.76
2023-02-28T05:57:06.152Z,58.23
2023-02-28T05:58:03.644Z,58.48
2023-02-28T05:59:03.642Z,58.95
2023-02-28T06:00:03.630Z,58.18
2023-02-28T06:01:03.620Z,59.64
2023-02-28T06:02:03.668Z,59.42
2023-02-28T06:03:03.745Z,59.83
2023-02-28T06:04:03.614Z,57.45
2023-02-28T06:05:03.621Z,58.16
2023-02-28T06:06:03.614Z,56.81
2023-02-28T06:07:02.618Z,57.36
2023-02-28T06:08:03.569Z,55.22
2023-02-28T06:09:03.604Z,58.46
2023-02-28T06:10:03.582Z,58.12
2023-02-28T06:11:02.548Z,57.44
2023-02-28T06:12:03.581Z,56.41
2023-02-28T06:13:02.537Z,58.88
2023-02-28T06:14:03.586Z,55.64
2023-02-28T06:15:03.514Z,58.13
2023-02-28T06:16:02.515Z,60.79
2023-02-28T06:17:03.564Z,57.42
2023-02-28T06:18:03.535Z,57.82
2023-02-28T06:19:03.524Z,58.63
2023-02-28T06:20:02.512Z,56.32
2023-02-28T06:21:03.474Z,55.92
2023-02-28T06:22:03.497Z,56.52
2023-02-28T06:23:03.466Z,58.74
2023-02-28T06:24:03.470Z,55.47
2023-02-28T06:25:03.502Z,55.28
2023-02-28T06:26:03.506Z,53.72
2023-02-28T06:27:02.547Z,51.49
2023-02-28T06:28:03.608Z,56.75
2023-02-28T06:29:03.673Z,54.01
2023-02-28T06:30:02.722Z,55.12
2023-02-28T06:31:03.834Z,52.01
2023-02-28T06:32:04.257Z,55.32
2023-02-28T06:33:03.899Z,63.97
2023-02-28T06:34:03.982Z,63.59
2023-02-28T06:35:04.012Z,64.68
2023-02-28T06:36:04.122Z,65.65
2023-02-28T06:37:04.072Z,66.19
2023-02-28T06:38:04.115Z,71.73
2023-02-28T06:39:04.195Z,68.24
2023-02-28T06:40:04.201Z,71.24
2023-02-28T06:41:03.302Z,74.86
2023-02-28T06:42:03.322Z,74.70
2023-02-28T06:43:03.361Z,75.00
2023-02-28T06:44:03.391Z,75.21
2023-02-28T06:45:04.521Z,77.43
2023-02-28T06:46:04.531Z,82.13
2023-02-28T06:47:04.545Z,82.75
2023-02-28T06:48:04.583Z,87.24
2023-02-28T06:49:04.599Z,72.76
2023-02-28T06:50:04.666Z,0.00
2023-02-28T06:51:04.666Z,17.86
2023-02-28T06:52:04.711Z,50.69
2023-02-28T06:53:04.711Z,80.56
2023-02-28T06:54:04.719Z,89.97
2023-02-28T06:55:04.735Z,95.68
2023-02-28T06:56:03.782Z,93.07
2023-02-28T06:57:04.840Z,93.18
2023-02-28T06:58:04.878Z,94.80
2023-02-28T06:59:03.896Z,92.31
2023-02-28T07:00:04.941Z,95.54
2023-02-28T07:01:03.932Z,97.87
2023-02-28T07:02:03.941Z,101.02
2023-02-28T07:03:04.952Z,102.21
2023-02-28T07:04:04.927Z,106.24
2023-02-28T07:05:03.952Z,111.45
2023-02-28T07:06:04.983Z,112.53
2023-02-28T07:07:04.997Z,110.79
2023-02-28T07:08:05.048Z,114.48
2023-02-28T07:09:05.097Z,114.95
2023-02-28T07:10:05.130Z,119.05
2023-02-28T07:11:05.252Z,118.64
2023-02-28T07:12:05.217Z,118.45
2023-02-28T07:13:05.256Z,119.23
2023-02-28T07:14:05.274Z,122.69
2023-02-28T07:15:05.326Z,123.37
2023-02-28T07:16:05.443Z,126.37
2023-02-28T07:17:05.385Z,125.23
2023-02-28T07:18:05.462Z,128.48
2023-02-28T07:19:05.552Z,127.15
2023-02-28T07:20:04.595Z,126.79
2023-02-28T07:21:05.656Z,128.89
2023-02-28T07:22:05.679Z,129.67
2023-02-28T07:23:05.745Z,132.04
2023-02-28T07:24:05.799Z,132.64
2023-02-28T07:25:05.821Z,131.62
2023-02-28T07:26:05.851Z,132.87
2023-02-28T07:27:04.902Z,136.27
2023-02-28T07:28:05.952Z,135.74
2023-02-28T07:29:05.001Z,136.41
2023-02-28T07:29:54.954Z,25.00
2023-02-28T07:30:06.031Z,135.80
2023-02-28T07:31:06.127Z,137.91
2023-02-28T07:32:06.137Z,138.58
2023-02-28T07:33:06.102Z,141.27
2023-02-28T07:34:06.105Z,143.07
2023-02-28T07:35:06.156Z,142.63
2023-02-28T07:36:05.170Z,141.47
2023-02-28T07:37:06.165Z,143.09
2023-02-28T07:38:06.180Z,144.93
2023-02-28T07:39:06.214Z,144.83
2023-02-28T07:40:06.242Z,147.42
2023-02-28T07:40:08.043Z,25.00
2023-02-28T07:41:06.200Z,148.52
2023-02-28T07:42:06.176Z,147.94
2023-02-28T07:43:06.175Z,145.11
2023-02-28T07:44:06.191Z,148.58
2023-02-28T07:45:06.218Z,150.72
2023-02-28T07:46:06.278Z,151.11
2023-02-28T07:47:06.264Z,151.30
2023-02-28T07:48:06.209Z,152.09
2023-02-28T07:49:06.243Z,151.49
2023-02-28T07:50:06.305Z,152.01
2023-02-28T07:51:06.352Z,155.43
2023-02-28T07:52:05.377Z,156.45
2023-02-28T07:53:06.438Z,158.58
2023-02-28T07:54:06.618Z,161.16
2023-02-28T07:55:05.619Z,164.20
2023-02-28T07:56:06.639Z,164.57
2023-02-28T07:57:06.691Z,164.63
2023-02-28T07:57:32.900Z,25.00
2023-02-28T07:58:06.716Z,166.31
2023-02-28T07:59:06.763Z,170.16
2023-02-28T07:59:51.403Z,25.00
2023-02-28T08:00:06.805Z,171.53
2023-02-28T08:00:49.488Z,25.00
2023-02-28T08:01:06.839Z,172.64
2023-02-28T08:02:07.186Z,172.26
2023-02-28T08:03:06.913Z,174.22
2023-02-28T08:04:05.950Z,175.09
2023-02-28T08:05:06.011Z,176.54
2023-02-28T08:06:07.028Z,177.97
2023-02-28T08:06:53.532Z,25.00
2023-02-28T08:07:06.043Z,176.48
2023-02-28T08:08:06.098Z,177.62
2023-02-28T08:09:07.086Z,179.24
2023-02-28T08:10:07.117Z,181.32
2023-02-28T08:11:07.110Z,178.41
2023-02-28T08:12:07.134Z,180.02
2023-02-28T08:13:06.146Z,179.38
2023-02-28T08:14:07.155Z,182.15
2023-02-28T08:15:07.592Z,180.28
2023-02-28T08:16:07.301Z,179.32
2023-02-28T08:16:52.557Z,25.00
2023-02-28T08:18:07.193Z,180.00
2023-02-28T08:19:07.204Z,181.02
2023-02-28T08:19:31.383Z,25.00
2023-02-28T08:20:07.217Z,183.28
2023-02-28T08:21:06.192Z,181.43
2023-02-28T08:22:07.194Z,185.41
2023-02-28T08:23:01.405Z,25.00
2023-02-28T08:23:06.197Z,185.52
2023-02-28T08:24:07.189Z,184.03
2023-02-28T08:25:07.174Z,183.89
2023-02-28T08:26:07.172Z,185.84
2023-02-28T08:27:07.272Z,185.52
2023-02-28T08:28:07.210Z,186.68
2023-02-28T08:29:07.258Z,186.08
2023-02-28T08:30:07.266Z,188.62
2023-02-28T08:31:07.346Z,186.23
2023-02-28T08:32:12.587Z,188.13
2023-02-28T08:32:29.491Z,25.00
2023-02-28T08:33:07.425Z,188.33
2023-02-28T08:34:06.346Z,188.82
2023-02-28T08:35:07.356Z,189.35
2023-02-28T08:36:03.288Z,25.00
2023-02-28T08:36:07.490Z,191.20
2023-02-28T08:36:59.661Z,25.00
2023-02-28T08:37:06.327Z,188.50
2023-02-28T08:38:07.337Z,191.46
2023-02-28T08:39:06.312Z,190.42
2023-02-28T08:39:56.095Z,25.00
2023-02-28T08:40:07.294Z,192.60
2023-02-28T08:41:07.311Z,190.04
2023-02-28T08:42:08.194Z,189.94
2023-02-28T08:43:06.278Z,193.73
2023-02-28T08:44:06.263Z,192.90
2023-02-28T08:45:07.278Z,193.08
2023-02-28T08:46:07.514Z,191.71
2023-02-28T08:47:07.244Z,192.42
2023-02-28T08:48:07.265Z,195.49
2023-02-28T08:49:07.237Z,198.44
2023-02-28T08:50:06.222Z,198.67
2023-02-28T08:51:08.803Z,192.50
2023-02-28T08:52:07.472Z,168.32
2023-02-28T08:53:07.534Z,179.53
2023-02-28T08:54:07.528Z,161.31
2023-02-28T08:55:06.534Z,177.58
2023-02-28T08:56:07.590Z,174.81
2023-02-28T08:57:07.551Z,175.47
2023-02-28T08:58:07.554Z,175.49
2023-02-28T08:59:06.549Z,177.91
2023-02-28T08:59:32.073Z,25.00
2023-02-28T09:00:07.588Z,187.56
2023-02-28T09:01:07.594Z,195.02
2023-02-28T09:01:49.552Z,25.00
2023-02-28T09:02:07.588Z,202.17
2023-02-28T09:03:07.574Z,203.15
2023-02-28T09:04:06.612Z,200.21
2023-02-28T09:05:06.577Z,205.75
2023-02-28T09:06:07.586Z,212.49
2023-02-28T09:07:07.585Z,205.31
2023-02-28T09:07:28.502Z,25.00
2023-02-28T09:08:07.582Z,205.53
2023-02-28T09:08:28.455Z,25.00
2023-02-28T09:09:07.600Z,211.47
2023-02-28T09:09:32.446Z,25.00
2023-02-28T09:10:07.615Z,205.51
2023-02-28T09:10:30.035Z,25.00
2023-02-28T09:11:07.639Z,208.68
2023-02-28T09:11:29.282Z,25.00
2023-02-28T09:12:06.623Z,211.92
2023-02-28T09:13:06.640Z,215.84
2023-02-28T09:13:47.784Z,25.00
2023-02-28T09:14:07.643Z,212.62
2023-02-28T09:14:49.899Z,25.00
2023-02-28T09:15:06.666Z,210.89
2023-02-28T09:15:50.438Z,25.00
2023-02-28T09:16:06.710Z,220.21
2023-02-28T09:16:48.838Z,25.00
2023-02-28T09:17:48.810Z,25.00
2023-02-28T09:18:06.760Z,223.57
2023-02-28T09:18:52.568Z,25.00
2023-02-28T09:19:48.661Z,25.00
2023-02-28T09:20:48.693Z,25.00
2023-02-28T09:21:07.922Z,218.57
2023-02-28T09:21:48.640Z,25.00
2023-02-28T09:22:07.936Z,211.66
2023-02-28T09:22:47.679Z,25.00
2023-02-28T09:23:48.722Z,25.00
2023-02-28T09:24:48.736Z,29.27
2023-02-28T09:25:07.966Z,200.56
2023-02-28T09:25:47.595Z,45.31
2023-02-28T09:26:07.951Z,193.68
2023-02-28T09:26:56.725Z,53.87
2023-02-28T09:27:08.475Z,194.08
2023-02-28T09:27:50.224Z,54.03
2023-02-28T09:28:07.986Z,205.31
2023-02-28T09:28:49.241Z,54.23
2023-02-28T09:29:07.993Z,204.68
2023-02-28T09:29:48.051Z,54.12
2023-02-28T09:30:49.013Z,77.92
2023-02-28T09:31:08.070Z,216.79
2023-02-28T09:31:49.403Z,86.24
2023-02-28T09:32:07.090Z,238.66
2023-02-28T09:33:07.026Z,226.81
2023-02-28T09:34:08.170Z,220.84
2023-02-28T09:35:08.086Z,211.90
2023-02-28T09:36:08.139Z,205.82
2023-02-28T09:37:08.166Z,200.18
2023-02-28T09:37:15.599Z,25.00
2023-02-28T09:38:08.141Z,201.36
2023-02-28T09:39:07.153Z,193.52
2023-02-28T09:39:35.290Z,25.00
2023-02-28T09:40:08.166Z,192.62
2023-02-28T09:40:35.311Z,25.00
2023-02-28T09:41:08.592Z,218.86
2023-02-28T09:42:07.239Z,334.57
2023-02-28T09:43:07.291Z,275.95
2023-02-28T09:44:08.307Z,260.33
2023-02-28T09:45:08.307Z,235.69
2023-02-28T09:46:08.622Z,212.38
2023-02-28T09:47:08.376Z,210.20
2023-02-28T09:48:08.405Z,207.11
2023-02-28T09:49:07.421Z,206.49
2023-02-28T09:50:07.471Z,179.74
2023-02-28T09:51:07.530Z,188.81
2023-02-28T09:52:08.547Z,190.48
2023-02-28T09:53:07.629Z,177.73
2023-02-28T09:54:08.709Z,180.70
2023-02-28T09:55:09.215Z,131.30
2023-02-28T09:56:09.088Z,100.33
2023-02-28T09:57:08.773Z,79.60
2023-02-28T09:58:08.794Z,96.93
2023-02-28T09:59:08.800Z,119.45
2023-02-28T10:00:08.842Z,94.22
2023-02-28T10:01:07.934Z,96.70
2023-02-28T10:02:08.887Z,86.18
2023-02-28T10:03:08.914Z,89.27
2023-02-28T10:03:58.984Z,25.00
2023-02-28T10:04:07.949Z,77.81
2023-02-28T10:05:08.982Z,85.11
2023-02-28T10:06:09.020Z,71.68
2023-02-28T10:10:09.128Z,31.14
2023-02-28T10:12:09.224Z,23.86
2023-02-28T10:13:09.232Z,43.24
2023-02-28T10:14:09.230Z,43.30
2023-02-28T10:17:08.347Z,25.18
2023-02-28T10:19:08.428Z,36.30
2023-02-28T10:24:08.600Z,29.78
2023-02-28T10:24:58.741Z,25.00
2023-02-28T10:26:08.685Z,21.13
2023-02-28T10:27:09.728Z,31.59
2023-02-28T10:28:09.777Z,45.78
2023-02-28T10:29:08.821Z,25.42
2023-02-28T10:31:08.986Z,26.94
2023-02-28T10:32:10.067Z,28.44
2023-02-28T10:33:10.080Z,25.64
2023-02-28T10:34:10.109Z,33.19
2023-02-28T10:35:09.149Z,32.66
2023-02-28T10:36:52.681Z,25.00
2023-02-28T10:38:10.320Z,30.22
2023-02-28T10:45:09.688Z,35.47
2023-02-28T10:46:10.831Z,42.09
2023-02-28T10:48:43.168Z,25.00
2023-02-28T10:49:09.778Z,44.29
2023-02-28T10:54:10.843Z,103.21
2023-02-28T10:57:10.969Z,123.05
2023-02-28T11:00:10.037Z,139.89
2023-02-28T11:01:10.160Z,145.44
2023-02-28T11:02:11.068Z,148.18
2023-02-28T11:03:11.069Z,153.38
2023-02-28T11:04:11.110Z,155.54
2023-02-28T11:06:11.274Z,163.15
2023-02-28T11:09:10.405Z,170.78
2023-02-28T11:10:11.404Z,173.61
2023-02-28T11:14:10.566Z,179.91
2023-02-28T11:17:53.929Z,25.00
2023-02-28T11:18:11.571Z,188.55
2023-02-28T11:19:11.559Z,191.42
2023-02-28T11:20:11.562Z,193.29
2023-02-28T11:22:10.567Z,197.17
2023-02-28T11:24:10.609Z,199.78
2023-02-28T11:25:11.736Z,200.98
2023-02-28T11:26:10.715Z,202.00
2023-02-28T11:27:11.742Z,203.87
2023-02-28T11:28:11.842Z,205.42
2023-02-28T11:28:34.154Z,25.00
2023-02-28T11:30:11.914Z,208.52
2023-02-28T11:31:12.153Z,208.31
2023-02-28T11:32:12.159Z,208.94
2023-02-28T11:33:12.183Z,209.76
2023-02-28T11:33:13.352Z,25.00
2023-02-28T11:34:12.137Z,213.57
2023-02-28T11:35:11.172Z,214.53
2023-02-28T11:36:11.314Z,214.29
2023-02-28T11:37:12.303Z,213.24
2023-02-28T11:38:11.384Z,214.54
2023-02-28T11:39:12.454Z,218.39
2023-02-28T11:40:12.467Z,221.87
2023-02-28T11:41:12.714Z,221.92
2023-02-28T11:42:12.599Z,220.32
2023-02-28T11:43:12.670Z,218.12
2023-02-28T11:44:12.711Z,221.46
2023-02-28T11:45:12.764Z,226.34
2023-02-28T11:46:13.181Z,230.50
2023-02-28T11:47:12.884Z,230.56
2023-02-28T11:48:12.955Z,229.26
2023-02-28T11:49:12.003Z,229.41
2023-02-28T11:51:12.106Z,230.01
2023-02-28T11:52:13.193Z,230.44
2023-02-28T11:53:13.233Z,230.64
2023-02-28T11:55:13.297Z,231.40
2023-02-28T11:56:13.356Z,230.26
2023-02-28T11:57:13.440Z,230.13
2023-02-28T11:58:12.455Z,229.52
2023-02-28T11:59:13.503Z,230.65
2023-02-28T12:00:12.561Z,229.89
2023-02-28T12:01:13.604Z,229.54
2023-02-28T12:02:12.708Z,228.52
2023-02-28T12:03:12.729Z,229.42
2023-02-28T12:04:13.788Z,229.64
2023-02-28T12:05:13.832Z,228.92
2023-02-28T12:06:12.949Z,229.35
2023-02-28T12:07:12.949Z,229.50
2023-02-28T12:08:13.013Z,227.83
2023-02-28T12:09:13.057Z,228.83
2023-02-28T12:10:14.209Z,228.58
2023-02-28T12:11:14.195Z,228.38
2023-02-28T12:12:14.228Z,228.78
2023-02-28T12:13:13.311Z,227.96
2023-02-28T12:14:14.336Z,228.10
2023-02-28T12:15:13.403Z,227.02
2023-02-28T12:16:13.539Z,226.10
2023-02-28T12:17:14.509Z,225.86
2023-02-28T12:18:14.562Z,225.98
2023-02-28T12:19:14.617Z,226.85
2023-02-28T12:20:14.749Z,225.44
2023-02-28T12:21:14.729Z,225.82
2023-02-28T12:22:14.804Z,225.09
2023-02-28T12:23:14.843Z,225.50
2023-02-28T12:24:14.889Z,224.84
2023-02-28T12:25:14.937Z,225.06
2023-02-28T12:26:14.005Z,224.22
2023-02-28T12:27:14.058Z,224.41
2023-02-28T12:28:14.135Z,223.71
2023-02-28T12:29:15.209Z,224.82
2023-02-28T12:30:15.230Z,223.89
2023-02-28T12:31:14.248Z,222.45
2023-02-28T12:32:15.401Z,223.46
2023-02-28T12:33:15.373Z,223.02
2023-02-28T12:39:11.392Z,25.00
2023-02-28T12:40:12.536Z,25.00
2023-02-28T12:41:12.394Z,25.00
2023-02-28T12:42:12.274Z,25.00
2023-02-28T12:43:12.299Z,25.00
2023-02-28T12:44:12.205Z,25.00
2023-02-28T12:45:11.461Z,0.00
2023-02-28T12:46:12.422Z,0.00
2023-02-28T12:47:12.242Z,0.00
2023-02-28T12:48:11.177Z,0.00
2023-02-28T12:49:11.175Z,0.00
2023-02-28T12:50:12.342Z,0.00
2023-02-28T12:51:12.258Z,0.00
2023-02-28T12:52:12.227Z,0.00
2023-02-28T12:53:17.156Z,220.37